createdAt,value
2018-07-06T00:00:44.852Z,0
2018-07-06T00:01:45.121Z,0
2018-07-06T00:02:45.467Z,0
2018-07-06T00:03:44.977Z,0
2018-07-06T00:04:45.050Z,0
2018-07-06T00:05:44.868Z,0
2018-07-06T00:06:44.838Z,0
2018-07-06T00:07:45.082Z,0
2018-07-06T00:08:44.957Z,0
2018-07-06T00:09:45.712Z,0
2018-07-06T00:10:45.039Z,0
2018-07-06T00:11:45.264Z,0
2018-07-06T00:12:45.325Z,0
2018-07-06T00:13:45.279Z,0
2018-07-06T00:14:46.315Z,0
2018-07-06T00:15:45.501Z,0
2018-07-06T00:16:45.860Z,0
2018-07-06T00:17:45.296Z,0
2018-07-06T00:18:45.078Z,0
2018-07-06T00:19:45.239Z,0
2018-07-06T00:20:45.753Z,0
2018-07-06T00:21:45.329Z,0
2018-07-06T00:22:45.477Z,0
2018-07-06T00:23:45.497Z,0
2018-07-06T00:24:45.830Z,0
2018-07-06T00:25:46.004Z,0
2018-07-06T00:26:45.587Z,0
2018-07-06T00:27:45.660Z,0
2018-07-06T00:28:45.586Z,0
2018-07-06T00:29:45.596Z,0
2018-07-06T00:30:52.159Z,0
2018-07-06T00:31:45.380Z,0
2018-07-06T00:32:45.672Z,0
2018-07-06T00:33:45.971Z,0
2018-07-06T00:34:45.989Z,0
2018-07-06T00:35:46.020Z,0
2018-07-06T00:36:46.236Z,0
2018-07-06T00:37:45.805Z,0
2018-07-06T00:38:45.829Z,0
2018-07-06T00:39:45.860Z,0
2018-07-06T00:40:45.883Z,0
2018-07-06T00:41:45.912Z,0
2018-07-06T00:42:45.984Z,0
2018-07-06T00:43:46.230Z,0
2018-07-06T00:44:46.268Z,0
2018-07-06T00:45:45.747Z,0
2018-07-06T00:46:46.038Z,0
2018-07-06T00:47:46.334Z,0
2018-07-06T00:48:45.314Z,0
2018-07-06T00:49:46.384Z,0
2018-07-06T00:50:46.416Z,0
2018-07-06T00:51:46.434Z,0
2018-07-06T00:52:46.243Z,0
2018-07-06T00:53:46.491Z,0
2018-07-06T00:54:46.393Z,0
2018-07-06T00:55:46.564Z,0
2018-07-06T00:56:46.350Z,0
2018-07-06T00:57:46.065Z,0
2018-07-06T00:58:46.359Z,0
2018-07-06T00:59:46.652Z,0
2018-07-06T01:00:46.677Z,0
2018-07-06T01:01:46.882Z,0
2018-07-06T01:02:46.194Z,0
2018-07-06T01:03:46.765Z,0
2018-07-06T01:04:46.798Z,0
2018-07-06T01:05:46.540Z,0
2018-07-06T01:06:46.833Z,0
2018-07-06T01:07:46.860Z,0
2018-07-06T01:08:46.887Z,0
2018-07-06T01:09:46.376Z,0
2018-07-06T01:10:46.944Z,0
2018-07-06T01:11:46.967Z,0
2018-07-06T01:12:46.989Z,0
2018-07-06T01:13:47.023Z,0
2018-07-06T01:14:47.046Z,0
2018-07-06T01:15:46.800Z,0
2018-07-06T01:16:47.091Z,0
2018-07-06T01:17:46.589Z,0
2018-07-06T01:18:47.139Z,0
2018-07-06T01:19:46.911Z,0
2018-07-06T01:20:47.198Z,0
2018-07-06T01:21:47.236Z,0
2018-07-06T01:22:46.721Z,0
2018-07-06T01:23:47.007Z,0
2018-07-06T01:24:47.038Z,0
2018-07-06T01:25:47.359Z,0
2018-07-06T01:26:47.351Z,0
2018-07-06T01:27:47.384Z,0
2018-07-06T01:28:47.138Z,0
2018-07-06T01:29:47.211Z,0
2018-07-06T01:30:47.457Z,0
2018-07-06T01:31:47.486Z,0
2018-07-06T01:32:47.514Z,0
2018-07-06T01:33:47.542Z,0
2018-07-06T01:34:47.558Z,0
2018-07-06T01:35:47.602Z,0
2018-07-06T01:36:47.336Z,0
2018-07-06T01:37:47.641Z,0
2018-07-06T01:38:47.658Z,0
2018-07-06T01:39:47.440Z,0
2018-07-06T01:40:47.448Z,0
2018-07-06T01:41:47.740Z,0
2018-07-06T01:42:47.762Z,0
2018-07-06T01:43:47.847Z,0
2018-07-06T01:44:47.552Z,0
2018-07-06T01:45:47.839Z,0
2018-07-06T01:46:47.615Z,0
2018-07-06T01:47:47.902Z,0
2018-07-06T01:48:47.665Z,0
2018-07-06T01:49:47.952Z,0
2018-07-06T01:50:47.444Z,0
2018-07-06T01:51:47.995Z,0
2018-07-06T01:52:47.775Z,0
2018-07-06T01:53:48.051Z,0
2018-07-06T01:54:48.071Z,0
2018-07-06T01:55:47.568Z,0
2018-07-06T01:56:48.123Z,0
2018-07-06T01:57:47.894Z,0
2018-07-06T01:58:48.171Z,0
2018-07-06T01:59:47.927Z,0
2018-07-06T02:00:48.227Z,0
2018-07-06T02:01:47.982Z,0
2018-07-06T02:02:48.274Z,0
2018-07-06T02:03:48.302Z,0
2018-07-06T02:04:48.059Z,0
2018-07-06T02:05:48.082Z,0
2018-07-06T02:06:48.107Z,0
2018-07-06T02:07:48.144Z,0
2018-07-06T02:08:48.209Z,0
2018-07-06T02:09:48.487Z,0
2018-07-06T02:10:47.954Z,0
2018-07-06T02:11:48.502Z,0
2018-07-06T02:12:48.532Z,0
2018-07-06T02:13:48.563Z,0
2018-07-06T02:14:48.315Z,0
2018-07-06T02:15:48.385Z,0
2018-07-06T02:16:48.625Z,0
2018-07-06T02:17:48.119Z,0
2018-07-06T02:18:48.144Z,0
2018-07-06T02:19:48.760Z,0
2018-07-06T02:20:48.742Z,0
2018-07-06T02:21:48.224Z,0
2018-07-06T02:22:48.779Z,0
2018-07-06T02:23:48.277Z,0
2018-07-06T02:24:48.838Z,0
2018-07-06T02:25:48.332Z,0
2018-07-06T02:26:48.887Z,0
2018-07-06T02:27:48.911Z,0
2018-07-06T02:28:48.936Z,0
2018-07-06T02:29:48.427Z,0
2018-07-06T02:30:48.490Z,0
2018-07-06T02:31:48.776Z,0
2018-07-06T02:32:48.501Z,0
2018-07-06T02:33:49.061Z,0
2018-07-06T02:34:48.826Z,0
2018-07-06T02:35:49.111Z,0
2018-07-06T02:36:48.881Z,0
2018-07-06T02:37:48.889Z,0
2018-07-06T02:38:48.927Z,0
2018-07-06T02:39:48.941Z,0
2018-07-06T02:40:49.244Z,0
2018-07-06T02:41:48.989Z,0
2018-07-06T02:42:49.289Z,0
2018-07-06T02:43:49.324Z,0
2018-07-06T02:44:49.346Z,0
2018-07-06T02:45:49.370Z,0
2018-07-06T02:46:49.414Z,0
2018-07-06T02:47:49.411Z,0
2018-07-06T02:48:49.442Z,0
2018-07-06T02:49:49.468Z,0
2018-07-06T02:50:49.509Z,0
2018-07-06T02:51:49.518Z,0
2018-07-06T02:52:49.596Z,0
2018-07-06T02:53:49.567Z,0
2018-07-06T02:54:49.587Z,0
2018-07-06T02:55:49.626Z,0
2018-07-06T02:56:49.653Z,0
2018-07-06T02:57:49.664Z,0
2018-07-06T02:58:49.701Z,0
2018-07-06T02:59:49.751Z,0
2018-07-06T03:00:49.744Z,0
2018-07-06T03:01:49.776Z,0
2018-07-06T03:02:49.521Z,0
2018-07-06T03:03:49.010Z,0
2018-07-06T03:04:49.839Z,0
2018-07-06T03:05:49.599Z,0
2018-07-06T03:06:49.622Z,0
2018-07-06T03:07:49.927Z,0
2018-07-06T03:08:49.683Z,0
2018-07-06T03:09:49.697Z,0
2018-07-06T03:10:49.459Z,0
2018-07-06T03:11:49.751Z,0
2018-07-06T03:12:49.513Z,0
2018-07-06T03:13:50.067Z,0
2018-07-06T03:14:49.824Z,0
2018-07-06T03:15:49.851Z,0
2018-07-06T03:16:49.602Z,0
2018-07-06T03:17:50.172Z,0
2018-07-06T03:18:49.973Z,0
2018-07-06T03:19:50.202Z,0
2018-07-06T03:20:50.242Z,0
2018-07-06T03:21:50.264Z,0
2018-07-06T03:22:50.300Z,0
2018-07-06T03:23:50.061Z,0
2018-07-06T03:24:50.060Z,0
2018-07-06T03:25:49.827Z,0
2018-07-06T03:26:50.413Z,0
2018-07-06T03:27:50.598Z,0
2018-07-06T03:28:52.436Z,0
2018-07-06T03:29:50.455Z,0
2018-07-06T03:30:50.221Z,0
2018-07-06T03:31:50.238Z,0
2018-07-06T03:32:50.260Z,0
2018-07-06T03:33:50.557Z,0
2018-07-06T03:34:50.631Z,0
2018-07-06T03:35:50.604Z,0
2018-07-06T03:36:50.360Z,0
2018-07-06T03:37:50.388Z,0
2018-07-06T03:38:50.412Z,0
2018-07-06T03:39:50.694Z,0
2018-07-06T03:40:50.762Z,0
2018-07-06T03:41:50.761Z,0
2018-07-06T03:42:50.505Z,0
2018-07-06T03:43:50.801Z,0
2018-07-06T03:44:50.558Z,0
2018-07-06T03:45:50.870Z,0
2018-07-06T03:46:50.613Z,0
2018-07-06T03:47:50.627Z,0
2018-07-06T03:48:50.919Z,0
2018-07-06T03:49:50.946Z,0
2018-07-06T03:50:50.970Z,0
2018-07-06T03:51:50.737Z,0
2018-07-06T03:52:51.020Z,0
2018-07-06T03:53:51.049Z,0
2018-07-06T03:54:51.095Z,0
2018-07-06T03:55:51.098Z,0
2018-07-06T03:56:50.580Z,0
2018-07-06T03:57:50.888Z,0
2018-07-06T03:58:50.897Z,0
2018-07-06T03:59:51.192Z,0
2018-07-06T04:00:50.944Z,0
2018-07-06T04:01:51.243Z,0
2018-07-06T04:02:50.996Z,0
2018-07-06T04:03:51.016Z,0
2018-07-06T04:04:51.324Z,0
2018-07-06T04:05:51.341Z,0
2018-07-06T04:06:51.357Z,0
2018-07-06T04:07:51.383Z,0
2018-07-06T04:08:51.138Z,0
2018-07-06T04:09:51.167Z,0
2018-07-06T04:10:51.462Z,5
2018-07-06T04:11:51.223Z,0
2018-07-06T04:12:51.234Z,0
2018-07-06T04:13:51.541Z,5
2018-07-06T04:14:51.287Z,5
2018-07-06T04:15:51.575Z,5
2018-07-06T04:16:51.631Z,5
2018-07-06T04:17:51.358Z,5
2018-07-06T04:18:51.652Z,5
2018-07-06T04:19:51.671Z,5
2018-07-06T04:20:51.427Z,5
2018-07-06T04:21:51.729Z,5
2018-07-06T04:22:51.751Z,5
2018-07-06T04:23:51.804Z,5
2018-07-06T04:24:51.267Z,5
2018-07-06T04:25:51.821Z,5
2018-07-06T04:26:51.595Z,5
2018-07-06T04:27:51.342Z,5
2018-07-06T04:28:51.894Z,5
2018-07-06T04:29:51.916Z,5
2018-07-06T04:30:51.677Z,5
2018-07-06T04:31:51.700Z,5
2018-07-06T04:32:51.723Z,5
2018-07-06T04:33:52.014Z,5
2018-07-06T04:34:51.771Z,5
2018-07-06T04:35:52.066Z,5
2018-07-06T04:36:51.819Z,5
2018-07-06T04:37:51.842Z,5
2018-07-06T04:38:52.138Z,5
2018-07-06T04:39:52.161Z,5
2018-07-06T04:40:52.183Z,5
2018-07-06T04:41:52.218Z,5
2018-07-06T04:42:52.243Z,5
2018-07-06T04:43:52.263Z,5
2018-07-06T04:44:52.017Z,5
2018-07-06T04:45:52.311Z,5
2018-07-06T04:46:52.074Z,5
2018-07-06T04:47:52.355Z,5
2018-07-06T04:48:52.377Z,5
2018-07-06T04:49:51.871Z,5
2018-07-06T04:50:51.891Z,5
2018-07-06T04:51:52.180Z,5
2018-07-06T04:52:51.947Z,5
2018-07-06T04:53:52.503Z,5
2018-07-06T04:54:51.724Z,5
2018-07-06T04:55:52.561Z,5
2018-07-06T04:56:52.571Z,5
2018-07-06T04:57:52.685Z,5
2018-07-06T04:58:52.622Z,5
2018-07-06T04:59:52.512Z,5
2018-07-06T05:00:52.677Z,10
2018-07-06T05:01:52.423Z,10
2018-07-06T05:02:52.188Z,10
2018-07-06T05:03:52.744Z,10
2018-07-06T05:04:52.234Z,10
2018-07-06T05:05:52.628Z,5
2018-07-06T05:06:52.285Z,5
2018-07-06T05:07:52.786Z,10
2018-07-06T05:08:52.329Z,10
2018-07-06T05:09:52.888Z,10
2018-07-06T05:10:52.914Z,10
2018-07-06T05:11:52.400Z,10
2018-07-06T05:12:52.965Z,10
2018-07-06T05:13:52.995Z,10
2018-07-06T05:14:53.012Z,10
2018-07-06T05:15:52.774Z,10
2018-07-06T05:16:53.634Z,10
2018-07-06T05:17:53.084Z,10
2018-07-06T05:18:52.573Z,10
2018-07-06T05:19:52.865Z,10
2018-07-06T05:20:53.160Z,10
2018-07-06T05:21:52.651Z,10
2018-07-06T05:22:52.404Z,10
2018-07-06T05:23:53.224Z,10
2018-07-06T05:24:53.252Z,10
2018-07-06T05:25:52.741Z,10
2018-07-06T05:26:53.035Z,5
2018-07-06T05:27:53.061Z,10
2018-07-06T05:28:53.089Z,10
2018-07-06T05:29:53.105Z,10
2018-07-06T05:30:53.397Z,10
2018-07-06T05:31:52.933Z,10
2018-07-06T05:32:52.914Z,10
2018-07-06T05:33:53.466Z,15
2018-07-06T05:34:53.222Z,15
2018-07-06T05:35:52.713Z,10
2018-07-06T05:36:53.008Z,10
2018-07-06T05:37:53.953Z,10
2018-07-06T05:38:53.316Z,10
2018-07-06T05:39:52.821Z,10
2018-07-06T05:40:53.388Z,15
2018-07-06T05:41:53.395Z,10
2018-07-06T05:42:53.413Z,10
2018-07-06T05:43:53.438Z,10
2018-07-06T05:44:53.736Z,10
2018-07-06T05:45:53.226Z,10
2018-07-06T05:46:53.780Z,15
2018-07-06T05:47:53.650Z,15
2018-07-06T05:48:53.569Z,15
2018-07-06T05:49:53.854Z,15
2018-07-06T05:50:53.975Z,15
2018-07-06T05:51:53.902Z,15
2018-07-06T05:52:53.937Z,10
2018-07-06T05:53:53.930Z,10
2018-07-06T05:54:53.980Z,15
2018-07-06T05:55:54.005Z,15
2018-07-06T05:56:54.027Z,20
2018-07-06T05:57:54.045Z,20
2018-07-06T05:58:54.070Z,20
2018-07-06T05:59:53.828Z,20
2018-07-06T06:00:54.124Z,15
2018-07-06T06:01:53.885Z,20
2018-07-06T06:02:54.169Z,15
2018-07-06T06:03:53.658Z,15
2018-07-06T06:04:53.998Z,10
2018-07-06T06:05:54.347Z,15
2018-07-06T06:06:54.291Z,15
2018-07-06T06:07:54.022Z,15
2018-07-06T06:08:54.042Z,15
2018-07-06T06:09:54.069Z,15
2018-07-06T06:10:54.183Z,20
2018-07-06T06:11:54.121Z,20
2018-07-06T06:12:54.416Z,20
2018-07-06T06:13:54.170Z,25
2018-07-06T06:14:54.116Z,25
2018-07-06T06:15:54.223Z,25
2018-07-06T06:16:54.247Z,25
2018-07-06T06:17:54.529Z,25
2018-07-06T06:18:54.886Z,25
2018-07-06T06:19:54.316Z,30
2018-07-06T06:20:54.610Z,30
2018-07-06T06:21:54.632Z,30
2018-07-06T06:22:54.655Z,30
2018-07-06T06:23:54.677Z,30
2018-07-06T06:24:54.642Z,30
2018-07-06T06:25:53.930Z,30
2018-07-06T06:26:54.501Z,30
2018-07-06T06:27:54.780Z,30
2018-07-06T06:28:54.259Z,30
2018-07-06T06:29:54.882Z,30
2018-07-06T06:30:54.586Z,30
2018-07-06T06:31:54.868Z,30
2018-07-06T06:32:54.813Z,30
2018-07-06T06:33:55.488Z,30
2018-07-06T06:34:54.419Z,30
2018-07-06T06:35:54.972Z,25
2018-07-06T06:36:54.912Z,25
2018-07-06T06:37:54.993Z,30
2018-07-06T06:38:54.780Z,25
2018-07-06T06:39:54.540Z,25
2018-07-06T06:40:54.566Z,25
2018-07-06T06:41:54.922Z,25
2018-07-06T06:42:54.343Z,25
2018-07-06T06:43:54.655Z,25
2018-07-06T06:44:55.565Z,25
2018-07-06T06:45:55.216Z,30
2018-07-06T06:46:55.407Z,35
2018-07-06T06:47:55.006Z,35
2018-07-06T06:48:55.296Z,30
2018-07-06T06:49:55.046Z,30
2018-07-06T06:50:55.152Z,25
2018-07-06T06:51:55.358Z,30
2018-07-06T06:52:55.139Z,30
2018-07-06T06:53:54.884Z,35
2018-07-06T06:54:54.905Z,30
2018-07-06T06:55:55.196Z,35
2018-07-06T06:56:55.491Z,35
2018-07-06T06:57:55.303Z,35
2018-07-06T06:58:55.587Z,35
2018-07-06T06:59:55.332Z,35
2018-07-06T07:00:55.386Z,35
2018-07-06T07:01:55.078Z,35
2018-07-06T07:02:55.379Z,35
2018-07-06T07:03:55.664Z,35
2018-07-06T07:04:56.031Z,40
2018-07-06T07:05:55.710Z,35
2018-07-06T07:06:55.476Z,35
2018-07-06T07:07:55.953Z,30
2018-07-06T07:08:55.846Z,30
2018-07-06T07:09:55.813Z,25
2018-07-06T07:10:55.034Z,25
2018-07-06T07:11:55.325Z,25
2018-07-06T07:12:55.629Z,25
2018-07-06T07:13:56.382Z,25
2018-07-06T07:14:55.925Z,25
2018-07-06T07:15:55.954Z,25
2018-07-06T07:16:55.994Z,25
2018-07-06T07:17:55.742Z,30
2018-07-06T07:18:55.501Z,30
2018-07-06T07:19:56.069Z,30
2018-07-06T07:20:55.555Z,30
2018-07-06T07:21:55.849Z,25
2018-07-06T07:22:56.130Z,30
2018-07-06T07:23:56.014Z,35
2018-07-06T07:24:55.923Z,35
2018-07-06T07:25:56.203Z,40
2018-07-06T07:26:55.966Z,35
2018-07-06T07:27:56.249Z,35
2018-07-06T07:28:56.022Z,30
2018-07-06T07:29:56.045Z,35
2018-07-06T07:30:56.390Z,35
2018-07-06T07:31:56.102Z,40
2018-07-06T07:32:56.115Z,40
2018-07-06T07:33:56.165Z,40
2018-07-06T07:34:56.160Z,40
2018-07-06T07:35:56.196Z,35
2018-07-06T07:36:56.216Z,40
2018-07-06T07:37:56.508Z,40
2018-07-06T07:38:56.651Z,35
2018-07-06T07:39:56.299Z,40
2018-07-06T07:40:56.318Z,45
2018-07-06T07:41:56.598Z,40
2018-07-06T07:42:56.627Z,35
2018-07-06T07:43:56.658Z,40
2018-07-06T07:44:56.412Z,40
2018-07-06T07:45:56.448Z,40
2018-07-06T07:46:56.484Z,40
2018-07-06T07:47:56.260Z,45
2018-07-06T07:48:56.818Z,45
2018-07-06T07:49:56.275Z,45
2018-07-06T07:50:56.305Z,45
2018-07-06T07:51:56.595Z,40
2018-07-06T07:52:56.620Z,35
2018-07-06T07:53:56.796Z,40
2018-07-06T07:54:56.670Z,40
2018-07-06T07:55:56.998Z,40
2018-07-06T07:56:56.726Z,45
2018-07-06T07:57:56.744Z,40
2018-07-06T07:58:56.240Z,40
2018-07-06T07:59:56.795Z,40
2018-07-06T08:00:58.082Z,40
2018-07-06T08:01:56.845Z,40
2018-07-06T08:02:57.147Z,35
2018-07-06T08:03:56.902Z,40
2018-07-06T08:04:57.185Z,35
2018-07-06T08:05:57.272Z,30
2018-07-06T08:06:56.970Z,35
2018-07-06T08:07:57.009Z,40
2018-07-06T08:08:57.017Z,45
2018-07-06T08:09:57.307Z,40
2018-07-06T08:10:57.385Z,45
2018-07-06T08:11:57.827Z,45
2018-07-06T08:12:57.385Z,40
2018-07-06T08:13:57.436Z,45
2018-07-06T08:14:57.444Z,50
2018-07-06T08:15:57.195Z,45
2018-07-06T08:16:57.049Z,40
2018-07-06T08:17:57.246Z,40
2018-07-06T08:18:57.009Z,40
2018-07-06T08:19:57.309Z,40
2018-07-06T08:20:57.596Z,45
2018-07-06T08:21:57.350Z,45
2018-07-06T08:22:57.641Z,40
2018-07-06T08:23:57.401Z,35
2018-07-06T08:24:57.435Z,35
2018-07-06T08:25:57.451Z,45
2018-07-06T08:26:56.941Z,45
2018-07-06T08:27:57.781Z,45
2018-07-06T08:28:57.796Z,35
2018-07-06T08:29:57.831Z,35
2018-07-06T08:30:57.600Z,40
2018-07-06T08:31:57.888Z,50
2018-07-06T08:32:57.926Z,50
2018-07-06T08:33:57.918Z,50
2018-07-06T08:34:57.171Z,45
2018-07-06T08:35:57.713Z,50
2018-07-06T08:36:57.732Z,50
2018-07-06T08:37:57.764Z,50
2018-07-06T08:38:57.791Z,50
2018-07-06T08:39:58.459Z,45
2018-07-06T08:40:58.105Z,45
2018-07-06T08:41:57.599Z,40
2018-07-06T08:42:57.908Z,35
2018-07-06T08:43:57.649Z,40
2018-07-06T08:44:58.305Z,45
2018-07-06T08:45:57.438Z,45
2018-07-06T08:46:57.989Z,35
2018-07-06T08:47:58.016Z,40
2018-07-06T08:48:57.774Z,40
2018-07-06T08:49:57.809Z,35
2018-07-06T08:50:58.383Z,30
2018-07-06T08:51:58.126Z,35
2018-07-06T08:52:57.899Z,35
2018-07-06T08:53:57.910Z,35
2018-07-06T08:54:57.936Z,40
2018-07-06T08:55:58.234Z,40
2018-07-06T08:56:57.982Z,45
2018-07-06T08:57:58.305Z,45
2018-07-06T08:58:58.568Z,50
2018-07-06T08:59:58.327Z,50
2018-07-06T09:00:58.629Z,45
2018-07-06T09:01:58.115Z,40
2018-07-06T09:02:58.142Z,45
2018-07-06T09:03:58.170Z,45
2018-07-06T09:04:58.471Z,40
2018-07-06T09:05:58.214Z,45
2018-07-06T09:06:58.238Z,45
2018-07-06T09:07:58.811Z,45
2018-07-06T09:08:58.294Z,40
2018-07-06T09:09:58.592Z,40
2018-07-06T09:10:58.357Z,40
2018-07-06T09:11:58.899Z,35
2018-07-06T09:12:58.737Z,35
2018-07-06T09:13:58.423Z,35
2018-07-06T09:14:58.491Z,30
2018-07-06T09:15:58.476Z,30
2018-07-06T09:16:58.484Z,30
2018-07-06T09:17:59.005Z,35
2018-07-06T09:18:58.520Z,40
2018-07-06T09:20:01.276Z,35
2018-07-06T09:20:58.875Z,35
2018-07-06T09:21:59.168Z,30
2018-07-06T09:22:58.926Z,30
2018-07-06T09:23:59.236Z,30
2018-07-06T09:24:58.973Z,30
2018-07-06T09:26:01.317Z,30
2018-07-06T09:26:58.510Z,30
2018-07-06T09:27:59.129Z,30
2018-07-06T09:28:59.080Z,30
2018-07-06T09:29:59.377Z,30
2018-07-06T09:30:58.864Z,35
2018-07-06T09:31:59.437Z,40
2018-07-06T09:32:59.200Z,45
2018-07-06T09:33:58.970Z,50
2018-07-06T09:34:59.248Z,50
2018-07-06T09:35:59.840Z,40
2018-07-06T09:36:59.291Z,40
2018-07-06T09:37:59.316Z,40
2018-07-06T09:38:59.633Z,40
2018-07-06T09:39:59.633Z,40
2018-07-06T09:40:59.678Z,40
2018-07-06T09:41:59.688Z,40
2018-07-06T09:42:59.735Z,40
2018-07-06T09:43:58.945Z,40
2018-07-06T09:44:59.504Z,40
2018-07-06T09:45:59.525Z,40
2018-07-06T09:46:59.566Z,40
2018-07-06T09:47:59.579Z,50
2018-07-06T09:48:59.850Z,45
2018-07-06T09:49:59.377Z,45
2018-07-06T09:51:00.331Z,40
2018-07-06T09:51:59.947Z,35
2018-07-06T09:52:59.985Z,30
2018-07-06T09:53:59.728Z,35
2018-07-06T09:54:59.778Z,40
2018-07-06T09:56:00.063Z,40
2018-07-06T09:56:59.817Z,40
2018-07-06T09:57:59.880Z,50
2018-07-06T09:58:59.915Z,50
2018-07-06T10:00:00.166Z,50
2018-07-06T10:00:59.928Z,55
2018-07-06T10:01:59.947Z,50
2018-07-06T10:03:00.249Z,50
2018-07-06T10:04:00.016Z,50
2018-07-06T10:05:00.039Z,50
2018-07-06T10:06:00.060Z,55
2018-07-06T10:06:59.810Z,55
2018-07-06T10:07:59.842Z,50
2018-07-06T10:09:00.466Z,45
2018-07-06T10:10:00.796Z,45
2018-07-06T10:11:00.413Z,50
2018-07-06T10:12:00.480Z,50
2018-07-06T10:13:00.244Z,45
2018-07-06T10:13:59.997Z,45
2018-07-06T10:15:00.299Z,50
2018-07-06T10:16:00.214Z,50
2018-07-06T10:17:00.362Z,55
2018-07-06T10:18:00.132Z,50
2018-07-06T10:19:00.699Z,50
2018-07-06T10:20:00.997Z,45
2018-07-06T10:21:00.461Z,50
2018-07-06T10:22:01.138Z,50
2018-07-06T10:23:00.778Z,50
2018-07-06T10:24:00.070Z,50
2018-07-06T10:25:00.318Z,45
2018-07-06T10:26:00.440Z,45
2018-07-06T10:27:00.791Z,35
2018-07-06T10:28:00.654Z,30
2018-07-06T10:29:00.933Z,40
2018-07-06T10:30:00.699Z,45
2018-07-06T10:31:01.011Z,45
2018-07-06T10:32:01.015Z,50
2018-07-06T10:33:00.664Z,55
2018-07-06T10:34:01.247Z,50
2018-07-06T10:35:00.831Z,45
2018-07-06T10:36:00.867Z,40
2018-07-06T10:37:01.144Z,45
2018-07-06T10:38:00.915Z,45
2018-07-06T10:39:01.208Z,45
2018-07-06T10:40:02.392Z,50
2018-07-06T10:41:00.993Z,50
2018-07-06T10:42:00.738Z,55
2018-07-06T10:43:00.767Z,50
2018-07-06T10:44:01.078Z,50
2018-07-06T10:45:01.099Z,45
2018-07-06T10:46:01.115Z,45
2018-07-06T10:47:01.158Z,50
2018-07-06T10:48:01.184Z,50
2018-07-06T10:49:00.940Z,45
2018-07-06T10:50:00.963Z,45
2018-07-06T10:51:01.247Z,45
2018-07-06T10:52:00.781Z,45
2018-07-06T10:53:01.045Z,50
2018-07-06T10:54:00.807Z,60
2018-07-06T10:55:01.626Z,65
2018-07-06T10:56:01.386Z,55
2018-07-06T10:57:01.686Z,60
2018-07-06T10:58:00.638Z,60
2018-07-06T10:59:00.936Z,60
2018-07-06T11:00:01.500Z,75
2018-07-06T11:01:01.643Z,75
2018-07-06T11:02:01.546Z,75
2018-07-06T11:03:01.581Z,80
2018-07-06T11:04:01.858Z,65
2018-07-06T11:05:02.177Z,50
2018-07-06T11:06:01.651Z,50
2018-07-06T11:07:02.149Z,45
2018-07-06T11:08:01.947Z,45
2018-07-06T11:09:01.918Z,50
2018-07-06T11:10:01.487Z,60
2018-07-06T11:11:02.055Z,60
2018-07-06T11:12:01.307Z,60
2018-07-06T11:13:01.842Z,45
2018-07-06T11:14:02.137Z,65
2018-07-06T11:15:02.156Z,60
2018-07-06T11:16:01.390Z,60
2018-07-06T11:17:02.220Z,70
2018-07-06T11:18:02.250Z,75
2018-07-06T11:19:01.501Z,40
2018-07-06T11:20:02.031Z,40
2018-07-06T11:21:02.322Z,80
2018-07-06T11:22:02.344Z,90
2018-07-06T11:23:02.109Z,105
2018-07-06T11:24:02.133Z,85
2018-07-06T11:25:02.272Z,80
2018-07-06T11:26:02.201Z,65
2018-07-06T11:27:02.227Z,80
2018-07-06T11:28:02.244Z,65
2018-07-06T11:29:02.541Z,65
2018-07-06T11:30:02.301Z,95
2018-07-06T11:31:02.065Z,100
2018-07-06T11:32:02.669Z,110
2018-07-06T11:33:02.648Z,95
2018-07-06T11:34:02.410Z,80
2018-07-06T11:35:02.712Z,70
2018-07-06T11:36:02.730Z,90
2018-07-06T11:37:02.512Z,85
2018-07-06T11:38:03.313Z,90
2018-07-06T11:39:02.818Z,70
2018-07-06T11:40:02.593Z,90
2018-07-06T11:41:02.602Z,90
2018-07-06T11:42:02.901Z,85
2018-07-06T11:43:02.954Z,80
2018-07-06T11:44:02.686Z,70
2018-07-06T11:45:03.632Z,70
2018-07-06T11:46:03.028Z,65
2018-07-06T11:47:02.839Z,65
2018-07-06T11:48:03.115Z,65
2018-07-06T11:49:02.561Z,85
2018-07-06T11:50:02.856Z,100
2018-07-06T11:51:02.615Z,110
2018-07-06T11:52:02.921Z,70
2018-07-06T11:53:03.230Z,70
2018-07-06T11:54:02.988Z,80
2018-07-06T11:55:03.262Z,85
2018-07-06T11:56:03.186Z,80
2018-07-06T11:57:02.783Z,85
2018-07-06T11:58:02.821Z,85
2018-07-06T11:59:02.838Z,95
2018-07-06T12:00:03.195Z,95
2018-07-06T12:01:03.180Z,80
2018-07-06T12:02:03.674Z,80
2018-07-06T12:03:03.482Z,85
2018-07-06T12:04:03.215Z,85
2018-07-06T12:05:03.278Z,65
2018-07-06T12:06:03.047Z,80
2018-07-06T12:07:03.603Z,95
2018-07-06T12:08:03.660Z,90
2018-07-06T12:09:03.126Z,85
2018-07-06T12:10:03.193Z,90
2018-07-06T12:11:03.746Z,95
2018-07-06T12:12:03.491Z,95
2018-07-06T12:13:03.239Z,75
2018-07-06T12:14:03.626Z,75
2018-07-06T12:15:03.559Z,70
2018-07-06T12:16:03.861Z,80
2018-07-06T12:17:03.640Z,80
2018-07-06T12:18:03.928Z,70
2018-07-06T12:19:03.726Z,70
2018-07-06T12:20:03.454Z,70
2018-07-06T12:21:04.306Z,80
2018-07-06T12:22:03.523Z,85
2018-07-06T12:23:03.602Z,80
2018-07-06T12:24:03.824Z,90
2018-07-06T12:25:03.868Z,85
2018-07-06T12:26:03.901Z,85
2018-07-06T12:27:03.655Z,95
2018-07-06T12:28:04.147Z,90
2018-07-06T12:29:04.076Z,85
2018-07-06T12:30:04.045Z,85
2018-07-06T12:31:09.619Z,70
2018-07-06T12:32:04.067Z,75
2018-07-06T12:33:04.089Z,80
2018-07-06T12:34:04.119Z,75
2018-07-06T12:35:03.878Z,75
2018-07-06T12:36:03.922Z,80
2018-07-06T12:37:04.030Z,90
2018-07-06T12:38:04.235Z,85
2018-07-06T12:39:04.267Z,70
2018-07-06T12:40:04.563Z,90
2018-07-06T12:41:04.349Z,55
2018-07-06T12:42:04.616Z,105
2018-07-06T12:43:04.397Z,80
2018-07-06T12:44:04.409Z,75
2018-07-06T12:45:04.458Z,90
2018-07-06T12:46:04.205Z,60
2018-07-06T12:47:04.510Z,85
2018-07-06T12:48:08.020Z,55
2018-07-06T12:49:04.568Z,50
2018-07-06T12:50:04.868Z,45
2018-07-06T12:51:04.108Z,90
2018-07-06T12:52:04.966Z,95
2018-07-06T12:53:04.969Z,65
2018-07-06T12:54:04.462Z,110
2018-07-06T12:55:04.732Z,110
2018-07-06T12:56:05.037Z,90
2018-07-06T12:57:04.868Z,120
2018-07-06T12:58:04.579Z,85
2018-07-06T12:59:04.869Z,105
2018-07-06T13:00:04.617Z,60
2018-07-06T13:01:05.196Z,70
2018-07-06T13:02:04.959Z,50
2018-07-06T13:03:04.449Z,30
2018-07-06T13:04:04.745Z,30
2018-07-06T13:05:04.836Z,40
2018-07-06T13:06:04.832Z,60
2018-07-06T13:07:05.115Z,65
2018-07-06T13:08:04.590Z,60
2018-07-06T13:09:04.627Z,55
2018-07-06T13:10:04.942Z,55
2018-07-06T13:11:05.498Z,85
2018-07-06T13:12:05.265Z,105
2018-07-06T13:13:05.285Z,105
2018-07-06T13:14:05.313Z,95
2018-07-06T13:15:05.346Z,100
2018-07-06T13:16:05.367Z,100
2018-07-06T13:17:05.438Z,100
2018-07-06T13:18:05.705Z,80
2018-07-06T13:19:05.456Z,75
2018-07-06T13:20:05.257Z,70
2018-07-06T13:21:06.280Z,90
2018-07-06T13:22:05.823Z,120
2018-07-06T13:23:05.872Z,80
2018-07-06T13:24:05.623Z,105
2018-07-06T13:25:05.376Z,110
2018-07-06T13:26:05.777Z,130
2018-07-06T13:27:05.730Z,85
2018-07-06T13:28:06.012Z,115
2018-07-06T13:29:06.183Z,75
2018-07-06T13:30:05.290Z,30
2018-07-06T13:31:05.840Z,25
2018-07-06T13:32:05.861Z,25
2018-07-06T13:33:06.193Z,40
2018-07-06T13:34:06.037Z,100
2018-07-06T13:35:05.689Z,75
2018-07-06T13:36:06.261Z,50
2018-07-06T13:37:05.744Z,35
2018-07-06T13:38:06.061Z,35
2018-07-06T13:39:06.202Z,50
2018-07-06T13:40:05.576Z,60
2018-07-06T13:41:06.133Z,55
2018-07-06T13:42:06.172Z,45
2018-07-06T13:43:06.215Z,40
2018-07-06T13:44:06.233Z,45
2018-07-06T13:45:06.269Z,35
2018-07-06T13:46:06.033Z,35
2018-07-06T13:47:06.651Z,35
2018-07-06T13:48:06.091Z,30
2018-07-06T13:49:06.383Z,30
2018-07-06T13:50:06.419Z,35
2018-07-06T13:51:06.182Z,40
2018-07-06T13:52:05.961Z,50
2018-07-06T13:53:06.113Z,50
2018-07-06T13:54:06.268Z,55
2018-07-06T13:55:06.305Z,70
2018-07-06T13:56:06.078Z,90
2018-07-06T13:57:06.361Z,105
2018-07-06T13:58:06.670Z,120
2018-07-06T13:59:07.030Z,125
2018-07-06T14:00:06.448Z,125
2018-07-06T14:01:06.755Z,85
2018-07-06T14:02:06.842Z,50
2018-07-06T14:03:06.556Z,65
2018-07-06T14:04:06.862Z,70
2018-07-06T14:05:06.901Z,75
2018-07-06T14:06:06.638Z,70
2018-07-06T14:07:06.941Z,70
2018-07-06T14:08:06.702Z,60
2018-07-06T14:09:06.733Z,60
2018-07-06T14:10:07.039Z,85
2018-07-06T14:11:07.069Z,80
2018-07-06T14:12:07.286Z,85
2018-07-06T14:13:06.865Z,110
2018-07-06T14:14:06.887Z,95
2018-07-06T14:15:06.654Z,80
2018-07-06T14:16:06.960Z,75
2018-07-06T14:17:07.246Z,90
2018-07-06T14:18:07.287Z,120
2018-07-06T14:19:07.322Z,130
2018-07-06T14:20:07.348Z,115
2018-07-06T14:21:07.641Z,120
2018-07-06T14:22:07.462Z,140
2018-07-06T14:23:07.714Z,140
2018-07-06T14:24:07.470Z,100
2018-07-06T14:25:06.968Z,115
2018-07-06T14:26:06.997Z,80